createdAt,value
2022-09-30T00:00:37.737Z,3.67
2022-09-30T00:05:39.966Z,3.40
2022-09-30T00:10:42.181Z,4.18
2022-09-30T00:15:47.643Z,3.40
2022-09-30T00:20:49.975Z,2.78
2022-09-30T00:25:57.933Z,2.60
2022-09-30T00:31:08.339Z,2.72
2022-09-30T00:36:11.359Z,1.90
2022-09-30T00:41:13.691Z,1.80
2022-09-30T00:46:43.647Z,1.90
2022-09-30T00:51:52.194Z,1.58
2022-09-30T00:57:00.752Z,1.67
2022-09-30T01:02:03.115Z,1.40
2022-09-30T01:07:07.515Z,1.80
2022-09-30T01:12:14.734Z,1.85
2022-09-30T01:17:26.132Z,1.70
2022-09-30T01:22:52.751Z,1.83
2022-09-30T01:28:13.699Z,1.88
2022-09-30T01:33:21.476Z,1.85
2022-09-30T01:38:26.527Z,1.70
2022-09-30T01:43:48.049Z,1.65
2022-09-30T01:49:17.642Z,1.98
2022-09-30T01:54:36.576Z,1.60
2022-09-30T02:00:05.775Z,1.65
2022-09-30T02:05:15.778Z,2.13
2022-09-30T02:11:01.440Z,1.70
2022-09-30T02:16:13.303Z,2.08
2022-09-30T02:21:22.149Z,1.98
2022-09-30T02:26:31.740Z,1.67
2022-09-30T02:31:37.513Z,1.95
2022-09-30T02:36:42.639Z,1.85
2022-09-30T02:41:53.518Z,2.20
2022-09-30T02:47:09.390Z,1.45
2022-09-30T02:52:45.468Z,1.58
2022-09-30T02:58:02.276Z,1.95
2022-09-30T03:03:12.909Z,1.95
2022-09-30T03:08:15.138Z,1.98
2022-09-30T03:13:55.210Z,2.25
2022-09-30T03:19:00.250Z,1.65
2022-09-30T03:24:11.800Z,2.10
2022-09-30T03:29:44.371Z,2.00
2022-09-30T03:35:19.580Z,2.33
2022-09-30T03:40:24.632Z,1.90
2022-09-30T03:45:48.758Z,1.75
2022-09-30T03:50:52.265Z,1.73
2022-09-30T03:55:55.110Z,2.55
2022-09-30T04:00:57.686Z,2.15
2022-09-30T04:05:59.849Z,2.05
2022-09-30T04:11:02.231Z,3.10
2022-09-30T04:16:05.513Z,2.78
2022-09-30T04:21:13.583Z,2.10
2022-09-30T04:26:17.779Z,2.65
2022-09-30T04:31:21.782Z,5.15
2022-09-30T04:36:24.255Z,4.68
2022-09-30T04:41:27.259Z,4.32
2022-09-30T04:46:29.384Z,3.35
2022-09-30T04:51:31.704Z,3.25
2022-09-30T04:56:33.873Z,2.50
2022-09-30T05:01:36.223Z,2.45
2022-09-30T05:06:41.111Z,2.30
2022-09-30T05:11:43.307Z,3.90
2022-09-30T05:16:45.429Z,2.15
2022-09-30T05:21:48.018Z,2.63
2022-09-30T05:26:50.259Z,2.55
2022-09-30T05:31:52.473Z,2.97
2022-09-30T05:36:54.680Z,2.33
2022-09-30T05:41:58.262Z,2.35
2022-09-30T05:47:00.523Z,2.53
2022-09-30T05:52:02.802Z,2.65
2022-09-30T05:57:04.992Z,2.75
2022-09-30T06:02:07.681Z,2.20
2022-09-30T06:07:10.734Z,2.40
2022-09-30T06:12:13.017Z,2.60
2022-09-30T06:17:17.738Z,3.28
2022-09-30T06:22:19.920Z,2.53
2022-09-30T06:27:22.521Z,3.00
2022-09-30T06:32:26.659Z,2.40
2022-09-30T06:37:29.368Z,2.72
2022-09-30T06:42:32.001Z,2.88
2022-09-30T06:47:34.230Z,4.13
2022-09-30T06:52:36.619Z,4.07
2022-09-30T06:57:41.109Z,8.07
2022-09-30T07:02:43.709Z,6.47
2022-09-30T07:07:45.913Z,3.63
2022-09-30T07:12:52.347Z,3.05
2022-09-30T07:17:57.165Z,2.90
2022-09-30T07:23:00.105Z,3.40
2022-09-30T07:28:02.464Z,2.00
2022-09-30T07:33:04.710Z,2.40
2022-09-30T07:38:06.912Z,1.92
2022-09-30T07:43:09.119Z,2.63
2022-09-30T07:48:31.173Z,2.15
2022-09-30T07:53:34.220Z,1.85
2022-09-30T07:58:37.250Z,2.00
2022-09-30T08:03:42.223Z,2.13
2022-09-30T08:08:45.965Z,2.03
2022-09-30T08:13:54.796Z,1.30
2022-09-30T08:24:00.101Z,1.60
2022-09-30T08:29:02.463Z,2.47
2022-09-30T08:34:04.928Z,1.92
2022-09-30T08:39:07.593Z,1.25
2022-09-30T08:44:37.813Z,1.10
2022-09-30T08:50:09.488Z,1.63
2022-09-30T08:55:36.403Z,1.75
2022-09-30T09:00:41.453Z,1.50
2022-09-30T09:06:21.093Z,1.08
2022-09-30T09:17:25.905Z,1.42
2022-09-30T09:22:30.980Z,1.75
2022-09-30T09:27:46.893Z,1.00
2022-09-30T09:32:57.626Z,1.30
2022-09-30T09:38:23.063Z,1.58
2022-09-30T09:43:44.403Z,0.90
2022-09-30T09:48:47.295Z,1.10
2022-09-30T09:53:55.504Z,1.17
2022-09-30T09:59:09.938Z,0.98
2022-09-30T10:04:19.529Z,1.73
2022-09-30T10:09:36.956Z,1.20
2022-09-30T10:14:48.144Z,1.83
2022-09-30T10:19:52.662Z,1.63
2022-09-30T10:25:10.194Z,1.25
2022-09-30T10:30:12.418Z,1.88
2022-09-30T10:35:24.349Z,1.77
2022-09-30T10:40:30.081Z,1.58
2022-09-30T10:45:39.186Z,1.50
2022-09-30T10:50:42.451Z,1.85
2022-09-30T10:55:46.275Z,1.77
2022-09-30T11:00:55.865Z,2.10
2022-09-30T11:06:00.951Z,1.50
2022-09-30T11:11:10.670Z,2.10
2022-09-30T11:16:43.631Z,1.90
2022-09-30T11:22:00.919Z,2.65
2022-09-30T11:27:15.175Z,1.90
2022-09-30T11:32:24.494Z,2.15
2022-09-30T11:37:34.866Z,1.92
2022-09-30T11:42:49.528Z,2.75
2022-09-30T11:48:03.717Z,2.90
2022-09-30T11:53:46.899Z,2.03
2022-09-30T11:58:54.598Z,2.03
2022-09-30T12:04:08.635Z,2.17
2022-09-30T12:09:21.945Z,1.98
2022-09-30T12:14:31.109Z,1.73
2022-09-30T12:19:48.162Z,2.17
2022-09-30T12:24:50.392Z,2.08
2022-09-30T12:30:20.713Z,2.17
2022-09-30T12:35:38.560Z,2.70
2022-09-30T12:40:56.013Z,1.85
2022-09-30T12:46:03.971Z,2.23
2022-09-30T12:51:07.645Z,2.25
2022-09-30T12:56:14.844Z,1.90
2022-09-30T13:01:27.623Z,1.30
2022-09-30T13:06:48.533Z,1.20
2022-09-30T13:11:59.871Z,1.65
2022-09-30T13:17:05.672Z,1.35
2022-09-30T13:22:20.278Z,1.20
2022-09-30T13:27:35.943Z,1.27
2022-09-30T13:32:38.748Z,1.70
2022-09-30T13:37:41.151Z,1.40
2022-09-30T13:42:50.392Z,1.20
2022-09-30T13:48:11.432Z,1.40
2022-09-30T13:53:22.596Z,1.48
2022-09-30T13:58:37.341Z,1.20
2022-09-30T14:04:24.002Z,1.35
2022-09-30T14:09:58.751Z,1.10
2022-09-30T14:15:03.635Z,1.05
2022-09-30T14:20:15.939Z,1.25
2022-09-30T14:25:20.676Z,1.17
2022-09-30T14:30:25.293Z,1.10
2022-09-30T14:35:31.750Z,1.25
2022-09-30T14:40:36.604Z,1.00
2022-09-30T14:45:43.872Z,1.00
2022-09-30T14:51:26.201Z,0.93
2022-09-30T14:56:36.886Z,1.17
2022-09-30T15:01:39.688Z,1.50
2022-09-30T15:06:48.000Z,1.55
2022-09-30T15:11:50.299Z,1.35
2022-09-30T15:17:00.348Z,1.40
2022-09-30T15:22:09.824Z,1.25
2022-09-30T15:27:22.544Z,1.48
2022-09-30T15:32:29.065Z,1.67
2022-09-30T15:37:34.063Z,1.50
2022-09-30T15:42:53.588Z,1.60
2022-09-30T15:47:58.733Z,1.80
2022-09-30T15:53:25.652Z,1.55
2022-09-30T15:58:38.375Z,1.88
2022-09-30T16:03:50.048Z,1.58
2022-09-30T16:09:18.502Z,2.05
2022-09-30T16:19:30.806Z,2.22
2022-09-30T16:24:33.202Z,1.92
2022-09-30T16:29:35.640Z,2.03
2022-09-30T16:34:39.049Z,1.33
2022-09-30T16:39:41.896Z,2.00
2022-09-30T16:44:45.691Z,2.42
2022-09-30T16:49:48.287Z,2.88
2022-09-30T16:54:50.544Z,3.08
2022-09-30T16:59:53.621Z,3.88
2022-09-30T17:04:55.902Z,2.97
2022-09-30T17:09:58.537Z,3.22
2022-09-30T17:15:01.173Z,2.78
2022-09-30T17:20:03.431Z,2.75
2022-09-30T17:25:06.339Z,3.70
2022-09-30T17:30:09.325Z,3.58
2022-09-30T17:35:12.301Z,4.93
2022-09-30T17:40:33.647Z,4.45
2022-09-30T17:45:36.879Z,3.70
2022-09-30T17:50:44.997Z,2.85
2022-09-30T17:55:49.293Z,4.10
2022-09-30T18:00:51.693Z,4.00
2022-09-30T18:06:00.465Z,3.78
2022-09-30T18:11:03.158Z,3.83
2022-09-30T18:16:08.571Z,4.40
2022-09-30T18:21:12.188Z,4.28
2022-09-30T18:26:14.477Z,4.50
2022-09-30T18:31:21.761Z,4.90
2022-09-30T18:36:28.909Z,4.32
2022-09-30T18:41:34.600Z,3.47
2022-09-30T18:46:38.053Z,3.35
2022-09-30T18:51:40.853Z,4.32
2022-09-30T18:56:44.663Z,3.05
2022-09-30T19:01:47.102Z,2.65
2022-09-30T19:06:50.509Z,2.70
2022-09-30T19:11:53.279Z,2.60
2022-09-30T19:16:56.734Z,2.92
2022-09-30T19:22:01.690Z,3.30
2022-09-30T19:27:05.537Z,3.05
2022-09-30T19:32:10.256Z,3.00
2022-09-30T19:37:25.297Z,3.83
2022-09-30T19:42:30.144Z,4.00
2022-09-30T19:47:34.461Z,4.18
2022-09-30T19:52:43.903Z,3.70
2022-09-30T19:57:50.374Z,3.75
2022-09-30T20:02:53.126Z,2.92
2022-09-30T20:07:55.347Z,2.70
2022-09-30T20:12:57.640Z,3.28
2022-09-30T20:17:59.956Z,2.78
2022-09-30T20:23:02.198Z,2.60
2022-09-30T20:28:05.410Z,2.55
2022-09-30T20:33:07.615Z,2.83
2022-09-30T20:38:13.555Z,3.00
2022-09-30T20:43:15.722Z,2.28
2022-09-30T20:48:17.934Z,2.40
2022-09-30T20:53:20.915Z,1.98
2022-09-30T20:58:23.093Z,2.35
2022-09-30T21:03:26.755Z,3.58
2022-09-30T21:08:29.196Z,2.80
2022-09-30T21:13:31.584Z,2.42
2022-09-30T21:18:34.307Z,2.78
2022-09-30T21:23:37.696Z,2.83
2022-09-30T21:28:40.236Z,3.72
2022-09-30T21:33:44.490Z,3.72
2022-09-30T21:38:46.676Z,4.15
2022-09-30T21:43:49.522Z,4.57
2022-09-30T21:48:54.052Z,4.18
2022-09-30T21:53:56.596Z,5.13
2022-09-30T21:58:59.202Z,3.28
2022-09-30T22:04:01.567Z,2.90
2022-09-30T22:09:04.822Z,3.20
2022-09-30T22:14:07.020Z,3.00
2022-09-30T22:19:09.612Z,3.50
2022-09-30T22:24:12.093Z,2.38
2022-09-30T22:29:14.308Z,2.90
2022-09-30T22:34:34.839Z,2.97
2022-09-30T22:39:37.632Z,3.08
2022-09-30T22:44:39.967Z,2.40
2022-09-30T22:49:42.284Z,2.70
2022-09-30T22:54:45.098Z,2.90
2022-09-30T22:59:48.114Z,3.50
2022-09-30T23:04:51.931Z,3.88
2022-09-30T23:09:54.287Z,3.45
2022-09-30T23:14:57.872Z,2.33
2022-09-30T23:20:00.348Z,3.30
2022-09-30T23:25:03.079Z,2.38
2022-09-30T23:30:06.166Z,3.33
2022-09-30T23:35:08.684Z,8.20
2022-09-30T23:40:11.120Z,3.72
2022-09-30T23:45:13.377Z,3.33
2022-09-30T23:50:16.484Z,2.60
2022-09-30T23:55:18.846Z,2.90
